Airport View

Enter AWOS ICAO identifier for current METAR.

ex. KFNL

CYPQ 270037Z AUTO 23004KT 6SM -UP BR BKN012 BKN019 OVC028 01/01 A2962 RMK SLP038

27 Jan 2020 00:50

Other Area AWOS: CWNC - CYTR - CWGL - CYKZ

TAF CYPQ 261938Z 2620/2703 24008KT P6SM SCT012 OVC025 TEMPO 2620/2703 3SM -SHSNRA BR OVC012 RMK FCST BASED ON AUTO OBS. NXT FCST WILL BE ISSUED AT 271045Z